sensor_id;sensor_type;location;lat;lon;timestamp;P1;durP1;ratioP1;P2;durP2;ratioP2
80677;SDS011;70042;52.494;5.502;2024-02-16T00:00:17;1.02;;;0.63;;
80677;SDS011;70042;52.494;5.502;2024-02-16T00:02:43;1.25;;;0.65;;
80677;SDS011;70042;52.494;5.502;2024-02-16T00:05:11;0.88;;;0.80;;
80677;SDS011;70042;52.494;5.502;2024-02-16T00:07:37;0.98;;;0.52;;
80677;SDS011;70042;52.494;5.502;2024-02-16T00:10:04;1.17;;;0.60;;
80677;SDS011;70042;52.494;5.502;2024-02-16T00:12:30;1.13;;;0.70;;
80677;SDS011;70042;52.494;5.502;2024-02-16T00:14:57;1.58;;;0.50;;
80677;SDS011;70042;52.494;5.502;2024-02-16T00:17:23;0.65;;;0.40;;
80677;SDS011;70042;52.494;5.502;2024-02-16T00:19:51;1.10;;;0.47;;
80677;SDS011;70042;52.494;5.502;2024-02-16T00:22:23;0.95;;;0.52;;
80677;SDS011;70042;52.494;5.502;2024-02-16T00:24:49;1.00;;;0.55;;
80677;SDS011;70042;52.494;5.502;2024-02-16T00:27:14;0.73;;;0.50;;
80677;SDS011;70042;52.494;5.502;2024-02-16T00:29:41;0.90;;;0.40;;
80677;SDS011;70042;52.494;5.502;2024-02-16T00:32:07;1.10;;;0.50;;
80677;SDS011;70042;52.494;5.502;2024-02-16T00:34:33;0.55;;;0.43;;
80677;SDS011;70042;52.494;5.502;2024-02-16T00:37:02;0.82;;;0.65;;
80677;SDS011;70042;52.494;5.502;2024-02-16T00:39:35;2.00;;;0.63;;
80677;SDS011;70042;52.494;5.502;2024-02-16T00:42:01;0.95;;;0.60;;
80677;SDS011;70042;52.494;5.502;2024-02-16T00:44:26;0.90;;;0.50;;
80677;SDS011;70042;52.494;5.502;2024-02-16T00:46:52;1.75;;;0.80;;
80677;SDS011;70042;52.494;5.502;2024-02-16T00:49:17;1.20;;;0.55;;
80677;SDS011;70042;52.494;5.502;2024-02-16T00:51:42;0.90;;;0.57;;
80677;SDS011;70042;52.494;5.502;2024-02-16T00:54:08;1.50;;;0.60;;
80677;SDS011;70042;52.494;5.502;2024-02-16T00:56:33;1.67;;;0.70;;
80677;SDS011;70042;52.494;5.502;2024-02-16T00:58:59;0.80;;;0.60;;
80677;SDS011;70042;52.494;5.502;2024-02-16T01:01:24;1.90;;;1.38;;
80677;SDS011;70042;52.494;5.502;2024-02-16T01:03:51;1.58;;;0.70;;
80677;SDS011;70042;52.494;5.502;2024-02-16T01:06:17;0.80;;;0.52;;
80677;SDS011;70042;52.494;5.502;2024-02-16T01:08:43;0.93;;;0.38;;
80677;SDS011;70042;52.494;5.502;2024-02-16T01:11:08;0.65;;;0.52;;
80677;SDS011;70042;52.494;5.502;2024-02-16T01:13:34;1.30;;;0.60;;
80677;SDS011;70042;52.494;5.502;2024-02-16T01:15:59;0.68;;;0.50;;
80677;SDS011;70042;52.494;5.502;2024-02-16T01:18:25;1.10;;;0.50;;
80677;SDS011;70042;52.494;5.502;2024-02-16T01:20:53;1.25;;;0.70;;
80677;SDS011;70042;52.494;5.502;2024-02-16T01:23:18;0.70;;;0.63;;
80677;SDS011;70042;52.494;5.502;2024-02-16T01:25:44;0.70;;;0.52;;
80677;SDS011;70042;52.494;5.502;2024-02-16T01:28:10;0.50;;;0.40;;
80677;SDS011;70042;52.494;5.502;2024-02-16T01:30:37;0.90;;;0.60;;
80677;SDS011;70042;52.494;5.502;2024-02-16T01:33:03;1.38;;;0.73;;
80677;SDS011;70042;52.494;5.502;2024-02-16T01:35:30;1.10;;;0.52;;
80677;SDS011;70042;52.494;5.502;2024-02-16T01:37:55;1.08;;;0.60;;
80677;SDS011;70042;52.494;5.502;2024-02-16T01:40:20;0.90;;;0.60;;
80677;SDS011;70042;52.494;5.502;2024-02-16T01:42:49;1.13;;;0.60;;
80677;SDS011;70042;52.494;5.502;2024-02-16T01:45:14;1.25;;;0.80;;
80677;SDS011;70042;52.494;5.502;2024-02-16T01:47:41;1.02;;;0.55;;
80677;SDS011;70042;52.494;5.502;2024-02-16T01:50:09;1.10;;;0.60;;
80677;SDS011;70042;52.494;5.502;2024-02-16T01:52:35;0.98;;;0.60;;
80677;SDS011;70042;52.494;5.502;2024-02-16T01:55:04;0.75;;;0.47;;
80677;SDS011;70042;52.494;5.502;2024-02-16T01:57:34;0.70;;;0.50;;
80677;SDS011;70042;52.494;5.502;2024-02-16T01:59:59;0.50;;;0.40;;
80677;SDS011;70042;52.494;5.502;2024-02-16T02:02:25;0.57;;;0.40;;
80677;SDS011;70042;52.494;5.502;2024-02-16T02:04:50;0.73;;;0.43;;
80677;SDS011;70042;52.494;5.502;2024-02-16T02:07:16;1.42;;;0.60;;
80677;SDS011;70042;52.494;5.502;2024-02-16T02:09:42;0.80;;;0.50;;
80677;SDS011;70042;52.494;5.502;2024-02-16T02:12:08;0.80;;;0.52;;
80677;SDS011;70042;52.494;5.502;2024-02-16T02:14:34;0.70;;;0.60;;
80677;SDS011;70042;52.494;5.502;2024-02-16T02:17:00;1.30;;;0.70;;
80677;SDS011;70042;52.494;5.502;2024-02-16T02:19:26;0.90;;;0.50;;
80677;SDS011;70042;52.494;5.502;2024-02-16T02:21:51;1.00;;;0.70;;
80677;SDS011;70042;52.494;5.502;2024-02-16T02:24:17;0.80;;;0.52;;
80677;SDS011;70042;52.494;5.502;2024-02-16T02:26:43;0.85;;;0.50;;
80677;SDS011;70042;52.494;5.502;2024-02-16T02:29:08;1.63;;;0.88;;
80677;SDS011;70042;52.494;5.502;2024-02-16T02:31:33;0.82;;;0.50;;
80677;SDS011;70042;52.494;5.502;2024-02-16T02:33:59;1.00;;;0.40;;
80677;SDS011;70042;52.494;5.502;2024-02-16T02:36:25;0.68;;;0.50;;
80677;SDS011;70042;52.494;5.502;2024-02-16T02:38:50;0.73;;;0.60;;
80677;SDS011;70042;52.494;5.502;2024-02-16T02:41:16;0.95;;;0.68;;
80677;SDS011;70042;52.494;5.502;2024-02-16T02:43:44;1.63;;;0.70;;
80677;SDS011;70042;52.494;5.502;2024-02-16T02:46:09;0.98;;;0.60;;
80677;SDS011;70042;52.494;5.502;2024-02-16T02:48:43;0.88;;;0.40;;
80677;SDS011;70042;52.494;5.502;2024-02-16T02:51:09;1.20;;;0.68;;
80677;SDS011;70042;52.494;5.502;2024-02-16T02:53:35;0.80;;;0.50;;
80677;SDS011;70042;52.494;5.502;2024-02-16T02:56:01;0.60;;;0.43;;
80677;SDS011;70042;52.494;5.502;2024-02-16T02:58:27;1.02;;;0.50;;
80677;SDS011;70042;52.494;5.502;2024-02-16T03:00:53;1.25;;;0.73;;
80677;SDS011;70042;52.494;5.502;2024-02-16T03:03:19;1.15;;;0.70;;
80677;SDS011;70042;52.494;5.502;2024-02-16T03:05:45;0.70;;;0.60;;
80677;SDS011;70042;52.494;5.502;2024-02-16T03:08:10;0.85;;;0.60;;
80677;SDS011;70042;52.494;5.502;2024-02-16T03:10:36;0.80;;;0.50;;
80677;SDS011;70042;52.494;5.502;2024-02-16T03:13:02;1.00;;;0.65;;
80677;SDS011;70042;52.494;5.502;2024-02-16T03:15:28;0.73;;;0.50;;
80677;SDS011;70042;52.494;5.502;2024-02-16T03:17:54;1.50;;;0.70;;
80677;SDS011;70042;52.494;5.502;2024-02-16T03:20:20;1.23;;;0.50;;
80677;SDS011;70042;52.494;5.502;2024-02-16T03:22:46;0.95;;;0.40;;
80677;SDS011;70042;52.494;5.502;2024-02-16T03:25:12;0.90;;;0.50;;
80677;SDS011;70042;52.494;5.502;2024-02-16T03:27:38;0.80;;;0.63;;
80677;SDS011;70042;52.494;5.502;2024-02-16T03:30:03;0.43;;;0.40;;
80677;SDS011;70042;52.494;5.502;2024-02-16T03:32:30;0.70;;;0.40;;
80677;SDS011;70042;52.494;5.502;2024-02-16T03:34:56;0.85;;;0.50;;
80677;SDS011;70042;52.494;5.502;2024-02-16T03:37:23;1.33;;;0.68;;
80677;SDS011;70042;52.494;5.502;2024-02-16T03:39:49;0.80;;;0.50;;
80677;SDS011;70042;52.494;5.502;2024-02-16T03:42:14;0.80;;;0.52;;
80677;SDS011;70042;52.494;5.502;2024-02-16T03:44:42;1.05;;;0.65;;
80677;SDS011;70042;52.494;5.502;2024-02-16T03:47:08;1.52;;;0.40;;
80677;SDS011;70042;52.494;5.502;2024-02-16T03:49:34;0.90;;;0.60;;
80677;SDS011;70042;52.494;5.502;2024-02-16T03:51:59;0.65;;;0.38;;
80677;SDS011;70042;52.494;5.502;2024-02-16T03:54:25;0.95;;;0.60;;
80677;SDS011;70042;52.494;5.502;2024-02-16T03:56:53;0.63;;;0.38;;
80677;SDS011;70042;52.494;5.502;2024-02-16T03:59:19;1.17;;;0.73;;
80677;SDS011;70042;52.494;5.502;2024-02-16T04:01:45;1.15;;;0.70;;
80677;SDS011;70042;52.494;5.502;2024-02-16T04:04:11;1.15;;;0.60;;
80677;SDS011;70042;52.494;5.502;2024-02-16T04:06:36;1.20;;;0.50;;
80677;SDS011;70042;52.494;5.502;2024-02-16T04:09:03;1.35;;;0.52;;
80677;SDS011;70042;52.494;5.502;2024-02-16T04:11:31;1.17;;;0.60;;
80677;SDS011;70042;52.494;5.502;2024-02-16T04:13:57;1.15;;;0.50;;
80677;SDS011;70042;52.494;5.502;2024-02-16T04:16:22;0.68;;;0.43;;
80677;SDS011;70042;52.494;5.502;2024-02-16T04:18:49;1.00;;;0.52;;
80677;SDS011;70042;52.494;5.502;2024-02-16T04:21:18;0.80;;;0.60;;
80677;SDS011;70042;52.494;5.502;2024-02-16T04:23:44;0.90;;;0.50;;
80677;SDS011;70042;52.494;5.502;2024-02-16T04:26:09;1.50;;;0.68;;
80677;SDS011;70042;52.494;5.502;2024-02-16T04:28:35;0.82;;;0.45;;
80677;SDS011;70042;52.494;5.502;2024-02-16T04:31:01;0.77;;;0.60;;
80677;SDS011;70042;52.494;5.502;2024-02-16T04:33:26;0.63;;;0.35;;
80677;SDS011;70042;52.494;5.502;2024-02-16T04:35:52;0.85;;;0.50;;
80677;SDS011;70042;52.494;5.502;2024-02-16T04:38:17;1.75;;;0.65;;
80677;SDS011;70042;52.494;5.502;2024-02-16T04:40:43;1.10;;;0.47;;
80677;SDS011;70042;52.494;5.502;2024-02-16T04:43:08;0.75;;;0.55;;
80677;SDS011;70042;52.494;5.502;2024-02-16T04:45:34;0.73;;;0.50;;
80677;SDS011;70042;52.494;5.502;2024-02-16T04:48:04;1.25;;;0.75;;
80677;SDS011;70042;52.494;5.502;2024-02-16T04:50:30;1.33;;;0.68;;
80677;SDS011;70042;52.494;5.502;2024-02-16T04:52:57;1.05;;;0.60;;
80677;SDS011;70042;52.494;5.502;2024-02-16T04:55:22;0.70;;;0.60;;
80677;SDS011;70042;52.494;5.502;2024-02-16T04:57:48;1.40;;;0.57;;
80677;SDS011;70042;52.494;5.502;2024-02-16T05:00:13;1.30;;;0.45;;
80677;SDS011;70042;52.494;5.502;2024-02-16T05:02:39;0.75;;;0.50;;
80677;SDS011;70042;52.494;5.502;2024-02-16T05:05:05;0.93;;;0.60;;
80677;SDS011;70042;52.494;5.502;2024-02-16T05:07:30;0.82;;;0.40;;
80677;SDS011;70042;52.494;5.502;2024-02-16T05:09:56;1.10;;;0.73;;
80677;SDS011;70042;52.494;5.502;2024-02-16T05:12:23;1.00;;;0.63;;
80677;SDS011;70042;52.494;5.502;2024-02-16T05:14:49;1.30;;;0.63;;
80677;SDS011;70042;52.494;5.502;2024-02-16T05:17:16;0.68;;;0.40;;
80677;SDS011;70042;52.494;5.502;2024-02-16T05:19:41;1.52;;;0.55;;
80677;SDS011;70042;52.494;5.502;2024-02-16T05:22:07;1.08;;;0.50;;
80677;SDS011;70042;52.494;5.502;2024-02-16T05:24:32;1.50;;;0.70;;
80677;SDS011;70042;52.494;5.502;2024-02-16T05:26:58;0.82;;;0.60;;
80677;SDS011;70042;52.494;5.502;2024-02-16T05:29:24;1.25;;;0.50;;
80677;SDS011;70042;52.494;5.502;2024-02-16T05:31:52;0.68;;;0.50;;
80677;SDS011;70042;52.494;5.502;2024-02-16T05:34:18;0.93;;;0.50;;
80677;SDS011;70042;52.494;5.502;2024-02-16T05:36:44;0.80;;;0.50;;
80677;SDS011;70042;52.494;5.502;2024-02-16T05:39:10;2.72;;;0.93;;
80677;SDS011;70042;52.494;5.502;2024-02-16T05:41:45;0.50;;;0.40;;
80677;SDS011;70042;52.494;5.502;2024-02-16T05:44:11;1.20;;;0.63;;
80677;SDS011;70042;52.494;5.502;2024-02-16T05:46:36;1.35;;;0.70;;
80677;SDS011;70042;52.494;5.502;2024-02-16T05:49:03;1.20;;;0.65;;
80677;SDS011;70042;52.494;5.502;2024-02-16T05:51:36;0.95;;;0.50;;
80677;SDS011;70042;52.494;5.502;2024-02-16T05:54:03;1.10;;;0.70;;
80677;SDS011;70042;52.494;5.502;2024-02-16T05:56:28;1.25;;;0.70;;
80677;SDS011;70042;52.494;5.502;2024-02-16T05:58:54;0.90;;;0.50;;
80677;SDS011;70042;52.494;5.502;2024-02-16T06:01:19;0.90;;;0.63;;
80677;SDS011;70042;52.494;5.502;2024-02-16T06:03:45;0.85;;;0.52;;
80677;SDS011;70042;52.494;5.502;2024-02-16T06:06:10;1.45;;;0.50;;
80677;SDS011;70042;52.494;5.502;2024-02-16T06:08:35;0.80;;;0.50;;
80677;SDS011;70042;52.494;5.502;2024-02-16T06:11:01;1.05;;;0.52;;
80677;SDS011;70042;52.494;5.502;2024-02-16T06:13:27;0.95;;;0.40;;
80677;SDS011;70042;52.494;5.502;2024-02-16T06:15:54;1.05;;;0.60;;
80677;SDS011;70042;52.494;5.502;2024-02-16T06:18:20;1.13;;;0.43;;
80677;SDS011;70042;52.494;5.502;2024-02-16T06:20:45;0.73;;;0.52;;
80677;SDS011;70042;52.494;5.502;2024-02-16T06:23:11;1.02;;;0.52;;
80677;SDS011;70042;52.494;5.502;2024-02-16T06:25:36;2.97;;;0.70;;
80677;SDS011;70042;52.494;5.502;2024-02-16T06:28:02;0.60;;;0.40;;
80677;SDS011;70042;52.494;5.502;2024-02-16T06:30:29;1.45;;;0.60;;
80677;SDS011;70042;52.494;5.502;2024-02-16T06:32:55;0.98;;;0.68;;
80677;SDS011;70042;52.494;5.502;2024-02-16T06:35:20;0.98;;;0.52;;
80677;SDS011;70042;52.494;5.502;2024-02-16T06:37:46;1.00;;;0.47;;
80677;SDS011;70042;52.494;5.502;2024-02-16T06:40:11;0.95;;;0.60;;
80677;SDS011;70042;52.494;5.502;2024-02-16T06:42:37;1.55;;;0.60;;
80677;SDS011;70042;52.494;5.502;2024-02-16T06:45:03;1.00;;;0.50;;
80677;SDS011;70042;52.494;5.502;2024-02-16T06:47:30;1.38;;;0.80;;
80677;SDS011;70042;52.494;5.502;2024-02-16T06:52:21;1.17;;;0.67;;
80677;SDS011;70042;52.494;5.502;2024-02-16T06:54:47;1.05;;;0.75;;
80677;SDS011;70042;52.494;5.502;2024-02-16T06:57:12;1.45;;;0.88;;
80677;SDS011;70042;52.494;5.502;2024-02-16T06:59:38;1.15;;;0.50;;
80677;SDS011;70042;52.494;5.502;2024-02-16T07:02:03;1.35;;;0.65;;
80677;SDS011;70042;52.494;5.502;2024-02-16T07:04:28;1.48;;;0.60;;
80677;SDS011;70042;52.494;5.502;2024-02-16T07:06:54;0.85;;;0.50;;
80677;SDS011;70042;52.494;5.502;2024-02-16T07:09:19;0.80;;;0.60;;
80677;SDS011;70042;52.494;5.502;2024-02-16T07:11:47;1.20;;;0.60;;
80677;SDS011;70042;52.494;5.502;2024-02-16T07:14:15;1.58;;;0.70;;
80677;SDS011;70042;52.494;5.502;2024-02-16T07:16:40;1.73;;;0.90;;
80677;SDS011;70042;52.494;5.502;2024-02-16T07:19:06;1.52;;;0.73;;
80677;SDS011;70042;52.494;5.502;2024-02-16T07:21:31;0.93;;;0.73;;
80677;SDS011;70042;52.494;5.502;2024-02-16T07:23:57;1.02;;;0.57;;
80677;SDS011;70042;52.494;5.502;2024-02-16T07:26:22;1.55;;;0.70;;
80677;SDS011;70042;52.494;5.502;2024-02-16T07:28:48;1.23;;;0.60;;
80677;SDS011;70042;52.494;5.502;2024-02-16T07:31:13;2.22;;;0.98;;
80677;SDS011;70042;52.494;5.502;2024-02-16T07:33:39;1.00;;;0.70;;
80677;SDS011;70042;52.494;5.502;2024-02-16T07:36:05;1.15;;;0.60;;
80677;SDS011;70042;52.494;5.502;2024-02-16T07:38:31;1.00;;;0.60;;
80677;SDS011;70042;52.494;5.502;2024-02-16T07:40:56;1.30;;;0.70;;
80677;SDS011;70042;52.494;5.502;2024-02-16T07:43:22;0.73;;;0.50;;
80677;SDS011;70042;52.494;5.502;2024-02-16T07:45:49;1.20;;;0.65;;
80677;SDS011;70042;52.494;5.502;2024-02-16T07:48:15;0.95;;;0.60;;
80677;SDS011;70042;52.494;5.502;2024-02-16T07:50:40;1.27;;;0.73;;
80677;SDS011;70042;52.494;5.502;2024-02-16T07:53:06;1.10;;;0.60;;
80677;SDS011;70042;52.494;5.502;2024-02-16T07:55:32;0.98;;;0.82;;
80677;SDS011;70042;52.494;5.502;2024-02-16T07:57:57;1.20;;;0.70;;
80677;SDS011;70042;52.494;5.502;2024-02-16T08:00:23;0.80;;;0.60;;
80677;SDS011;70042;52.494;5.502;2024-02-16T08:02:48;0.98;;;0.63;;
80677;SDS011;70042;52.494;5.502;2024-02-16T08:05:14;1.33;;;0.70;;
80677;SDS011;70042;52.494;5.502;2024-02-16T08:07:39;0.85;;;0.50;;
80677;SDS011;70042;52.494;5.502;2024-02-16T08:10:09;0.82;;;0.50;;
80677;SDS011;70042;52.494;5.502;2024-02-16T08:12:35;0.70;;;0.63;;
80677;SDS011;70042;52.494;5.502;2024-02-16T08:15:04;1.42;;;0.90;;
80677;SDS011;70042;52.494;5.502;2024-02-16T08:17:32;1.98;;;0.70;;
80677;SDS011;70042;52.494;5.502;2024-02-16T08:19:59;1.00;;;0.60;;
80677;SDS011;70042;52.494;5.502;2024-02-16T08:22:24;1.35;;;0.88;;
80677;SDS011;70042;52.494;5.502;2024-02-16T08:24:50;1.05;;;0.65;;
80677;SDS011;70042;52.494;5.502;2024-02-16T08:27:15;1.10;;;0.60;;
80677;SDS011;70042;52.494;5.502;2024-02-16T08:29:41;1.20;;;0.90;;
80677;SDS011;70042;52.494;5.502;2024-02-16T08:34:34;1.25;;;0.70;;
80677;SDS011;70042;52.494;5.502;2024-02-16T08:37:02;1.15;;;0.60;;
80677;SDS011;70042;52.494;5.502;2024-02-16T08:39:29;1.20;;;0.57;;
80677;SDS011;70042;52.494;5.502;2024-02-16T08:41:55;1.33;;;0.88;;
80677;SDS011;70042;52.494;5.502;2024-02-16T08:44:20;0.80;;;0.50;;
80677;SDS011;70042;52.494;5.502;2024-02-16T08:46:46;1.00;;;0.60;;
80677;SDS011;70042;52.494;5.502;2024-02-16T08:49:13;1.00;;;0.65;;
80677;SDS011;70042;52.494;5.502;2024-02-16T08:51:39;1.90;;;0.80;;
80677;SDS011;70042;52.494;5.502;2024-02-16T08:54:04;1.27;;;0.68;;
80677;SDS011;70042;52.494;5.502;2024-02-16T08:56:30;1.50;;;0.90;;
80677;SDS011;70042;52.494;5.502;2024-02-16T08:58:56;1.27;;;0.90;;
80677;SDS011;70042;52.494;5.502;2024-02-16T09:03:56;2.03;;;0.73;;
80677;SDS011;70042;52.494;5.502;2024-02-16T09:06:22;1.17;;;0.57;;
80677;SDS011;70042;52.494;5.502;2024-02-16T09:08:47;2.15;;;0.95;;
80677;SDS011;70042;52.494;5.502;2024-02-16T09:11:13;1.25;;;0.70;;
80677;SDS011;70042;52.494;5.502;2024-02-16T09:13:39;1.38;;;0.70;;
80677;SDS011;70042;52.494;5.502;2024-02-16T09:18:31;1.10;;;0.63;;
80677;SDS011;70042;52.494;5.502;2024-02-16T09:20:56;1.05;;;0.80;;
80677;SDS011;70042;52.494;5.502;2024-02-16T09:23:22;1.02;;;0.70;;
80677;SDS011;70042;52.494;5.502;2024-02-16T09:25:47;1.60;;;0.80;;
80677;SDS011;70042;52.494;5.502;2024-02-16T09:28:14;1.08;;;0.60;;
80677;SDS011;70042;52.494;5.502;2024-02-16T09:30:40;1.17;;;0.80;;
80677;SDS011;70042;52.494;5.502;2024-02-16T09:33:05;1.10;;;0.90;;
80677;SDS011;70042;52.494;5.502;2024-02-16T09:35:32;1.85;;;0.88;;
80677;SDS011;70042;52.494;5.502;2024-02-16T09:37:58;1.55;;;0.90;;
80677;SDS011;70042;52.494;5.502;2024-02-16T09:40:23;1.23;;;0.82;;
80677;SDS011;70042;52.494;5.502;2024-02-16T09:42:49;1.60;;;0.85;;
80677;SDS011;70042;52.494;5.502;2024-02-16T09:45:15;1.38;;;0.98;;
80677;SDS011;70042;52.494;5.502;2024-02-16T09:47:44;1.58;;;0.90;;
80677;SDS011;70042;52.494;5.502;2024-02-16T09:50:14;2.08;;;0.82;;
80677;SDS011;70042;52.494;5.502;2024-02-16T09:52:40;1.58;;;0.63;;
80677;SDS011;70042;52.494;5.502;2024-02-16T09:55:07;1.02;;;0.80;;
80677;SDS011;70042;52.494;5.502;2024-02-16T09:57:36;1.10;;;0.80;;
80677;SDS011;70042;52.494;5.502;2024-02-16T10:00:02;1.58;;;0.90;;
80677;SDS011;70042;52.494;5.502;2024-02-16T10:02:39;1.17;;;0.80;;
80677;SDS011;70042;52.494;5.502;2024-02-16T10:07:37;2.00;;;1.00;;
80677;SDS011;70042;52.494;5.502;2024-02-16T10:10:02;1.60;;;0.73;;
80677;SDS011;70042;52.494;5.502;2024-02-16T10:12:29;1.52;;;0.88;;
80677;SDS011;70042;52.494;5.502;2024-02-16T10:14:55;1.65;;;0.98;;
80677;SDS011;70042;52.494;5.502;2024-02-16T10:17:21;1.52;;;0.98;;
80677;SDS011;70042;52.494;5.502;2024-02-16T10:19:55;1.40;;;0.90;;
80677;SDS011;70042;52.494;5.502;2024-02-16T10:22:21;1.75;;;0.80;;
80677;SDS011;70042;52.494;5.502;2024-02-16T10:24:48;1.45;;;0.70;;
80677;SDS011;70042;52.494;5.502;2024-02-16T10:27:15;1.25;;;0.80;;
80677;SDS011;70042;52.494;5.502;2024-02-16T10:29:43;2.28;;;1.20;;
80677;SDS011;70042;52.494;5.502;2024-02-16T10:32:12;1.75;;;1.13;;
80677;SDS011;70042;52.494;5.502;2024-02-16T10:34:38;1.55;;;0.80;;
80677;SDS011;70042;52.494;5.502;2024-02-16T10:37:05;1.55;;;0.98;;
80677;SDS011;70042;52.494;5.502;2024-02-16T10:39:32;1.52;;;0.90;;
80677;SDS011;70042;52.494;5.502;2024-02-16T10:41:58;1.80;;;1.25;;
80677;SDS011;70042;52.494;5.502;2024-02-16T10:44:27;3.00;;;1.30;;
80677;SDS011;70042;52.494;5.502;2024-02-16T10:46:53;1.45;;;0.80;;
80677;SDS011;70042;52.494;5.502;2024-02-16T10:49:21;1.80;;;1.10;;
80677;SDS011;70042;52.494;5.502;2024-02-16T10:51:49;1.45;;;1.15;;
80677;SDS011;70042;52.494;5.502;2024-02-16T10:54:22;1.60;;;0.80;;
80677;SDS011;70042;52.494;5.502;2024-02-16T10:56:53;1.55;;;0.95;;
80677;SDS011;70042;52.494;5.502;2024-02-16T10:59:19;2.05;;;1.30;;
80677;SDS011;70042;52.494;5.502;2024-02-16T11:01:45;2.33;;;1.27;;
80677;SDS011;70042;52.494;5.502;2024-02-16T11:04:14;2.60;;;1.20;;
80677;SDS011;70042;52.494;5.502;2024-02-16T11:09:27;1.48;;;1.00;;
80677;SDS011;70042;52.494;5.502;2024-02-16T11:11:54;2.22;;;1.40;;
80677;SDS011;70042;52.494;5.502;2024-02-16T11:14:23;2.78;;;1.35;;
80677;SDS011;70042;52.494;5.502;2024-02-16T11:16:53;3.17;;;1.30;;
80677;SDS011;70042;52.494;5.502;2024-02-16T11:19:19;2.58;;;1.30;;
80677;SDS011;70042;52.494;5.502;2024-02-16T11:21:57;1.75;;;1.23;;
80677;SDS011;70042;52.494;5.502;2024-02-16T11:24:30;2.33;;;1.20;;
80677;SDS011;70042;52.494;5.502;2024-02-16T11:26:57;2.35;;;1.30;;
80677;SDS011;70042;52.494;5.502;2024-02-16T11:29:23;2.90;;;1.00;;
80677;SDS011;70042;52.494;5.502;2024-02-16T11:31:50;1.70;;;1.10;;
80677;SDS011;70042;52.494;5.502;2024-02-16T11:34:22;2.58;;;1.23;;
80677;SDS011;70042;52.494;5.502;2024-02-16T11:36:48;2.58;;;1.38;;
80677;SDS011;70042;52.494;5.502;2024-02-16T11:39:14;2.25;;;0.85;;
80677;SDS011;70042;52.494;5.502;2024-02-16T11:41:42;2.88;;;1.27;;
80677;SDS011;70042;52.494;5.502;2024-02-16T11:44:08;2.00;;;1.38;;
80677;SDS011;70042;52.494;5.502;2024-02-16T11:46:33;2.55;;;1.23;;
80677;SDS011;70042;52.494;5.502;2024-02-16T11:49:04;1.95;;;0.98;;
80677;SDS011;70042;52.494;5.502;2024-02-16T11:51:30;2.10;;;1.10;;
80677;SDS011;70042;52.494;5.502;2024-02-16T11:53:56;2.55;;;1.40;;
80677;SDS011;70042;52.494;5.502;2024-02-16T11:56:23;2.15;;;1.30;;
80677;SDS011;70042;52.494;5.502;2024-02-16T11:58:49;2.53;;;1.25;;
80677;SDS011;70042;52.494;5.502;2024-02-16T12:01:15;2.05;;;0.90;;
80677;SDS011;70042;52.494;5.502;2024-02-16T12:03:41;1.90;;;1.27;;
80677;SDS011;70042;52.494;5.502;2024-02-16T12:08:33;2.53;;;1.43;;
80677;SDS011;70042;52.494;5.502;2024-02-16T12:10:59;1.92;;;0.90;;
80677;SDS011;70042;52.494;5.502;2024-02-16T12:13:25;1.98;;;0.95;;
80677;SDS011;70042;52.494;5.502;2024-02-16T12:15:50;2.42;;;1.20;;
80677;SDS011;70042;52.494;5.502;2024-02-16T12:23:35;1.83;;;0.93;;
80677;SDS011;70042;52.494;5.502;2024-02-16T12:26:01;1.98;;;1.08;;
80677;SDS011;70042;52.494;5.502;2024-02-16T12:28:28;2.25;;;0.93;;
80677;SDS011;70042;52.494;5.502;2024-02-16T12:30:55;2.33;;;0.90;;
80677;SDS011;70042;52.494;5.502;2024-02-16T12:33:21;1.50;;;1.10;;
80677;SDS011;70042;52.494;5.502;2024-02-16T12:35:47;1.95;;;1.10;;
80677;SDS011;70042;52.494;5.502;2024-02-16T12:38:13;1.98;;;1.08;;
80677;SDS011;70042;52.494;5.502;2024-02-16T12:40:38;1.90;;;1.08;;
80677;SDS011;70042;52.494;5.502;2024-02-16T12:43:04;2.22;;;1.10;;
80677;SDS011;70042;52.494;5.502;2024-02-16T12:45:30;2.55;;;1.60;;
80677;SDS011;70042;52.494;5.502;2024-02-16T12:47:56;1.70;;;1.10;;
80677;SDS011;70042;52.494;5.502;2024-02-16T12:50:22;2.05;;;1.10;;
80677;SDS011;70042;52.494;5.502;2024-02-16T12:52:47;1.58;;;1.17;;
80677;SDS011;70042;52.494;5.502;2024-02-16T12:55:13;1.83;;;1.00;;
80677;SDS011;70042;52.494;5.502;2024-02-16T12:57:39;2.08;;;1.05;;
80677;SDS011;70042;52.494;5.502;2024-02-16T13:00:04;2.08;;;1.50;;
80677;SDS011;70042;52.494;5.502;2024-02-16T13:02:30;1.42;;;1.05;;
80677;SDS011;70042;52.494;5.502;2024-02-16T13:04:56;2.17;;;1.30;;
80677;SDS011;70042;52.494;5.502;2024-02-16T13:07:21;1.35;;;0.85;;
80677;SDS011;70042;52.494;5.502;2024-02-16T13:09:47;1.70;;;1.10;;
80677;SDS011;70042;52.494;5.502;2024-02-16T13:12:15;1.42;;;0.90;;
80677;SDS011;70042;52.494;5.502;2024-02-16T13:14:41;1.90;;;1.20;;
80677;SDS011;70042;52.494;5.502;2024-02-16T13:17:06;1.85;;;1.15;;
80677;SDS011;70042;52.494;5.502;2024-02-16T13:19:32;2.83;;;1.20;;
80677;SDS011;70042;52.494;5.502;2024-02-16T13:21:58;2.13;;;1.35;;
80677;SDS011;70042;52.494;5.502;2024-02-16T13:24:23;1.85;;;1.00;;
80677;SDS011;70042;52.494;5.502;2024-02-16T13:29:15;1.43;;;1.07;;
80677;SDS011;70042;52.494;5.502;2024-02-16T13:31:40;1.83;;;1.05;;
80677;SDS011;70042;52.494;5.502;2024-02-16T13:34:07;1.73;;;1.15;;
80677;SDS011;70042;52.494;5.502;2024-02-16T13:36:33;1.98;;;1.30;;
80677;SDS011;70042;52.494;5.502;2024-02-16T13:38:58;2.08;;;1.30;;
80677;SDS011;70042;52.494;5.502;2024-02-16T13:41:24;2.58;;;1.00;;
80677;SDS011;70042;52.494;5.502;2024-02-16T13:43:50;1.88;;;1.20;;
80677;SDS011;70042;52.494;5.502;2024-02-16T13:46:16;2.10;;;1.17;;
80677;SDS011;70042;52.494;5.502;2024-02-16T13:48:42;2.15;;;1.05;;
80677;SDS011;70042;52.494;5.502;2024-02-16T13:51:08;1.30;;;0.85;;
80677;SDS011;70042;52.494;5.502;2024-02-16T13:53:34;2.13;;;0.93;;
80677;SDS011;70042;52.494;5.502;2024-02-16T13:56:00;1.85;;;1.10;;
80677;SDS011;70042;52.494;5.502;2024-02-16T13:58:29;2.33;;;1.10;;
80677;SDS011;70042;52.494;5.502;2024-02-16T14:03:20;1.97;;;1.13;;
80677;SDS011;70042;52.494;5.502;2024-02-16T14:05:46;1.75;;;1.08;;
80677;SDS011;70042;52.494;5.502;2024-02-16T14:08:12;1.40;;;0.93;;
80677;SDS011;70042;52.494;5.502;2024-02-16T14:10:38;1.77;;;1.00;;
80677;SDS011;70042;52.494;5.502;2024-02-16T14:13:03;1.35;;;0.80;;
80677;SDS011;70042;52.494;5.502;2024-02-16T14:15:29;2.40;;;1.13;;
80677;SDS011;70042;52.494;5.502;2024-02-16T14:17:54;2.22;;;1.10;;
80677;SDS011;70042;52.494;5.502;2024-02-16T14:20:20;1.90;;;1.30;;
80677;SDS011;70042;52.494;5.502;2024-02-16T14:22:48;1.83;;;1.08;;
80677;SDS011;70042;52.494;5.502;2024-02-16T14:25:14;1.80;;;1.00;;
80677;SDS011;70042;52.494;5.502;2024-02-16T14:27:39;2.47;;;1.30;;
80677;SDS011;70042;52.494;5.502;2024-02-16T14:30:06;2.50;;;1.10;;
80677;SDS011;70042;52.494;5.502;2024-02-16T14:32:33;2.83;;;1.27;;
80677;SDS011;70042;52.494;5.502;2024-02-16T14:34:58;1.77;;;1.15;;
80677;SDS011;70042;52.494;5.502;2024-02-16T14:37:24;1.42;;;1.00;;
80677;SDS011;70042;52.494;5.502;2024-02-16T14:39:50;1.17;;;0.60;;
80677;SDS011;70042;52.494;5.502;2024-02-16T14:42:18;1.17;;;0.93;;
80677;SDS011;70042;52.494;5.502;2024-02-16T14:44:43;1.60;;;1.15;;
80677;SDS011;70042;52.494;5.502;2024-02-16T14:47:09;1.80;;;1.00;;
80677;SDS011;70042;52.494;5.502;2024-02-16T14:52:01;1.13;;;0.80;;
80677;SDS011;70042;52.494;5.502;2024-02-16T14:54:27;1.65;;;0.93;;
80677;SDS011;70042;52.494;5.502;2024-02-16T14:56:52;1.38;;;0.85;;
80677;SDS011;70042;52.494;5.502;2024-02-16T14:59:18;1.73;;;1.10;;
80677;SDS011;70042;52.494;5.502;2024-02-16T15:01:44;1.40;;;1.10;;
80677;SDS011;70042;52.494;5.502;2024-02-16T15:04:09;1.65;;;0.98;;
80677;SDS011;70042;52.494;5.502;2024-02-16T15:06:34;2.60;;;1.17;;
80677;SDS011;70042;52.494;5.502;2024-02-16T15:09:01;1.88;;;0.98;;
80677;SDS011;70042;52.494;5.502;2024-02-16T15:11:30;1.73;;;1.10;;